sensor_id;sensor_type;location;lat;lon;timestamp;P1;durP1;ratioP1;P2;durP2;ratioP2
77168;SDS011;66281;45.114;20.730;2023-07-16T00:01:18;9.73;;;6.40;;
77168;SDS011;66281;45.114;20.730;2023-07-16T00:11:19;8.20;;;7.03;;
77168;SDS011;66281;45.114;20.730;2023-07-16T00:21:20;9.57;;;6.40;;
77168;SDS011;66281;45.114;20.730;2023-07-16T00:31:20;8.37;;;6.80;;
77168;SDS011;66281;45.114;20.730;2023-07-16T00:41:21;10.50;;;7.22;;
77168;SDS011;66281;45.114;20.730;2023-07-16T00:51:22;8.67;;;7.77;;
77168;SDS011;66281;45.114;20.730;2023-07-16T01:01:25;8.70;;;6.73;;
77168;SDS011;66281;45.114;20.730;2023-07-16T01:11:26;8.10;;;7.30;;
77168;SDS011;66281;45.114;20.730;2023-07-16T01:21:31;9.47;;;7.37;;
77168;SDS011;66281;45.114;20.730;2023-07-16T01:31:39;9.47;;;7.40;;
77168;SDS011;66281;45.114;20.730;2023-07-16T01:41:40;11.90;;;8.00;;
77168;SDS011;66281;45.114;20.730;2023-07-16T01:51:41;12.77;;;7.87;;
77168;SDS011;66281;45.114;20.730;2023-07-16T02:01:41;10.27;;;7.90;;
77168;SDS011;66281;45.114;20.730;2023-07-16T02:11:42;16.27;;;8.70;;
77168;SDS011;66281;45.114;20.730;2023-07-16T02:21:43;25.70;;;9.15;;
77168;SDS011;66281;45.114;20.730;2023-07-16T02:31:43;10.17;;;8.03;;
77168;SDS011;66281;45.114;20.730;2023-07-16T02:41:44;10.00;;;7.97;;
77168;SDS011;66281;45.114;20.730;2023-07-16T02:51:44;10.73;;;8.20;;
77168;SDS011;66281;45.114;20.730;2023-07-16T03:01:45;14.47;;;7.63;;
77168;SDS011;66281;45.114;20.730;2023-07-16T03:11:46;10.53;;;8.60;;
77168;SDS011;66281;45.114;20.730;2023-07-16T03:21:46;9.53;;;7.67;;
77168;SDS011;66281;45.114;20.730;2023-07-16T03:31:47;9.75;;;8.43;;
77168;SDS011;66281;45.114;20.730;2023-07-16T03:41:50;11.37;;;8.40;;
77168;SDS011;66281;45.114;20.730;2023-07-16T03:51:51;10.73;;;8.27;;
77168;SDS011;66281;45.114;20.730;2023-07-16T04:01:52;10.67;;;7.90;;
77168;SDS011;66281;45.114;20.730;2023-07-16T04:11:54;10.60;;;9.23;;
77168;SDS011;66281;45.114;20.730;2023-07-16T04:21:55;12.30;;;8.45;;
77168;SDS011;66281;45.114;20.730;2023-07-16T04:31:55;12.40;;;9.53;;
77168;SDS011;66281;45.114;20.730;2023-07-16T04:41:56;12.20;;;8.87;;
77168;SDS011;66281;45.114;20.730;2023-07-16T04:51:57;10.23;;;8.97;;
77168;SDS011;66281;45.114;20.730;2023-07-16T05:01:57;9.85;;;8.32;;
77168;SDS011;66281;45.114;20.730;2023-07-16T05:11:58;9.65;;;7.93;;
77168;SDS011;66281;45.114;20.730;2023-07-16T05:21:58;9.70;;;8.90;;
77168;SDS011;66281;45.114;20.730;2023-07-16T05:31:59;7.97;;;7.17;;
77168;SDS011;66281;45.114;20.730;2023-07-16T05:42:00;7.22;;;5.75;;
77168;SDS011;66281;45.114;20.730;2023-07-16T05:52:00;8.10;;;6.30;;
77168;SDS011;66281;45.114;20.730;2023-07-16T06:02:01;8.87;;;6.27;;
77168;SDS011;66281;45.114;20.730;2023-07-16T06:12:02;10.30;;;8.60;;
77168;SDS011;66281;45.114;20.730;2023-07-16T06:22:03;10.60;;;6.88;;
77168;SDS011;66281;45.114;20.730;2023-07-16T06:32:04;9.93;;;6.80;;
77168;SDS011;66281;45.114;20.730;2023-07-16T06:42:05;9.97;;;8.13;;
77168;SDS011;66281;45.114;20.730;2023-07-16T06:52:07;12.00;;;8.57;;
77168;SDS011;66281;45.114;20.730;2023-07-16T07:02:07;10.57;;;9.13;;
77168;SDS011;66281;45.114;20.730;2023-07-16T07:12:08;7.80;;;7.00;;
77168;SDS011;66281;45.114;20.730;2023-07-16T07:22:09;10.00;;;6.90;;
77168;SDS011;66281;45.114;20.730;2023-07-16T07:32:09;7.57;;;6.82;;
77168;SDS011;66281;45.114;20.730;2023-07-16T07:42:10;8.38;;;7.57;;
77168;SDS011;66281;45.114;20.730;2023-07-16T07:52:10;9.57;;;8.73;;
77168;SDS011;66281;45.114;20.730;2023-07-16T08:02:11;7.72;;;6.88;;
77168;SDS011;66281;45.114;20.730;2023-07-16T08:12:11;10.35;;;7.25;;
77168;SDS011;66281;45.114;20.730;2023-07-16T08:22:12;7.97;;;7.20;;
77168;SDS011;66281;45.114;20.730;2023-07-16T08:32:13;7.20;;;6.28;;
77168;SDS011;66281;45.114;20.730;2023-07-16T08:42:13;8.15;;;7.45;;
77168;SDS011;66281;45.114;20.730;2023-07-16T08:52:14;9.60;;;7.63;;
77168;SDS011;66281;45.114;20.730;2023-07-16T09:02:19;9.23;;;6.75;;
77168;SDS011;66281;45.114;20.730;2023-07-16T09:12:22;10.43;;;6.90;;
77168;SDS011;66281;45.114;20.730;2023-07-16T09:22:24;7.70;;;6.93;;
77168;SDS011;66281;45.114;20.730;2023-07-16T09:32:39;9.48;;;7.78;;
77168;SDS011;66281;45.114;20.730;2023-07-16T09:42:41;7.13;;;6.50;;
77168;SDS011;66281;45.114;20.730;2023-07-16T09:52:42;6.83;;;6.23;;
77168;SDS011;66281;45.114;20.730;2023-07-16T10:02:43;8.40;;;7.40;;
77168;SDS011;66281;45.114;20.730;2023-07-16T10:13:00;8.55;;;7.72;;
77168;SDS011;66281;45.114;20.730;2023-07-16T10:23:11;8.20;;;7.47;;
77168;SDS011;66281;45.114;20.730;2023-07-16T10:33:12;9.23;;;8.47;;
77168;SDS011;66281;45.114;20.730;2023-07-16T10:43:12;9.25;;;7.47;;
77168;SDS011;66281;45.114;20.730;2023-07-16T10:53:13;8.37;;;7.67;;
77168;SDS011;66281;45.114;20.730;2023-07-16T11:03:17;9.60;;;8.70;;
77168;SDS011;66281;45.114;20.730;2023-07-16T11:13:17;8.48;;;7.72;;
77168;SDS011;66281;45.114;20.730;2023-07-16T11:23:18;9.40;;;8.50;;
77168;SDS011;66281;45.114;20.730;2023-07-16T11:33:19;9.33;;;8.43;;
77168;SDS011;66281;45.114;20.730;2023-07-16T11:43:19;10.60;;;9.60;;
77168;SDS011;66281;45.114;20.730;2023-07-16T11:53:20;11.80;;;10.40;;
77168;SDS011;66281;45.114;20.730;2023-07-16T12:03:20;10.73;;;9.70;;
77168;SDS011;66281;45.114;20.730;2023-07-16T12:13:21;10.90;;;9.35;;
77168;SDS011;66281;45.114;20.730;2023-07-16T12:23:22;11.47;;;10.27;;
77168;SDS011;66281;45.114;20.730;2023-07-16T12:33:23;12.02;;;10.93;;
77168;SDS011;66281;45.114;20.730;2023-07-16T12:43:23;11.77;;;10.80;;
77168;SDS011;66281;45.114;20.730;2023-07-16T12:53:24;11.35;;;9.55;;
77168;SDS011;66281;45.114;20.730;2023-07-16T13:03:25;10.60;;;9.60;;
77168;SDS011;66281;45.114;20.730;2023-07-16T13:13:25;11.00;;;9.90;;
77168;SDS011;66281;45.114;20.730;2023-07-16T13:23:27;13.10;;;10.13;;
77168;SDS011;66281;45.114;20.730;2023-07-16T13:33:31;13.03;;;10.97;;
77168;SDS011;66281;45.114;20.730;2023-07-16T13:43:39;12.03;;;10.93;;
77168;SDS011;66281;45.114;20.730;2023-07-16T13:53:40;13.23;;;11.32;;
77168;SDS011;66281;45.114;20.730;2023-07-16T14:03:40;12.43;;;11.23;;
77168;SDS011;66281;45.114;20.730;2023-07-16T14:13:41;12.05;;;10.85;;
77168;SDS011;66281;45.114;20.730;2023-07-16T14:23:41;12.07;;;10.93;;
77168;SDS011;66281;45.114;20.730;2023-07-16T14:33:42;12.15;;;10.95;;
77168;SDS011;66281;45.114;20.730;2023-07-16T14:43:42;11.30;;;10.20;;
77168;SDS011;66281;45.114;20.730;2023-07-16T14:53:43;11.53;;;10.43;;
77168;SDS011;66281;45.114;20.730;2023-07-16T15:03:43;11.85;;;10.63;;
77168;SDS011;66281;45.114;20.730;2023-07-16T15:13:44;11.13;;;10.02;;
77168;SDS011;66281;45.114;20.730;2023-07-16T15:23:44;12.60;;;11.50;;
77168;SDS011;66281;45.114;20.730;2023-07-16T15:33:45;11.40;;;10.45;;
77168;SDS011;66281;45.114;20.730;2023-07-16T15:43:46;11.57;;;10.37;;
77168;SDS011;66281;45.114;20.730;2023-07-16T15:53:56;11.47;;;10.40;;
77168;SDS011;66281;45.114;20.730;2023-07-16T16:03:57;10.77;;;9.82;;
77168;SDS011;66281;45.114;20.730;2023-07-16T16:13:59;12.77;;;11.53;;
77168;SDS011;66281;45.114;20.730;2023-07-16T16:24:00;13.35;;;11.50;;
77168;SDS011;66281;45.114;20.730;2023-07-16T16:34:00;12.55;;;10.25;;
77168;SDS011;66281;45.114;20.730;2023-07-16T16:44:01;19.40;;;10.23;;
77168;SDS011;66281;45.114;20.730;2023-07-16T16:54:01;15.40;;;10.30;;
77168;SDS011;66281;45.114;20.730;2023-07-16T17:04:02;15.40;;;10.70;;
77168;SDS011;66281;45.114;20.730;2023-07-16T17:14:03;12.60;;;10.35;;
77168;SDS011;66281;45.114;20.730;2023-07-16T17:24:04;11.03;;;10.07;;
77168;SDS011;66281;45.114;20.730;2023-07-16T17:34:05;15.35;;;10.25;;
77168;SDS011;66281;45.114;20.730;2023-07-16T17:44:05;22.65;;;11.15;;
77168;SDS011;66281;45.114;20.730;2023-07-16T17:54:06;14.93;;;11.03;;
77168;SDS011;66281;45.114;20.730;2023-07-16T18:04:06;16.57;;;11.80;;
77168;SDS011;66281;45.114;20.730;2023-07-16T18:14:07;23.20;;;11.23;;
77168;SDS011;66281;45.114;20.730;2023-07-16T18:24:08;16.88;;;11.90;;
77168;SDS011;66281;45.114;20.730;2023-07-16T18:34:09;14.53;;;10.73;;
77168;SDS011;66281;45.114;20.730;2023-07-16T18:44:13;20.48;;;12.35;;
77168;SDS011;66281;45.114;20.730;2023-07-16T18:54:14;16.63;;;11.60;;
77168;SDS011;66281;45.114;20.730;2023-07-16T19:04:15;20.33;;;11.00;;
77168;SDS011;66281;45.114;20.730;2023-07-16T19:14:15;23.85;;;11.20;;
77168;SDS011;66281;45.114;20.730;2023-07-16T19:24:21;12.57;;;10.13;;
77168;SDS011;66281;45.114;20.730;2023-07-16T19:34:24;38.40;;;12.67;;
77168;SDS011;66281;45.114;20.730;2023-07-16T19:44:25;19.73;;;11.38;;
77168;SDS011;66281;45.114;20.730;2023-07-16T19:54:25;19.43;;;11.20;;
77168;SDS011;66281;45.114;20.730;2023-07-16T20:04:26;32.60;;;13.48;;
77168;SDS011;66281;45.114;20.730;2023-07-16T20:14:26;17.35;;;11.98;;
77168;SDS011;66281;45.114;20.730;2023-07-16T20:24:27;16.50;;;11.63;;
77168;SDS011;66281;45.114;20.730;2023-07-16T20:34:27;16.75;;;12.88;;
77168;SDS011;66281;45.114;20.730;2023-07-16T20:44:28;24.98;;;12.43;;
77168;SDS011;66281;45.114;20.730;2023-07-16T20:54:29;14.87;;;12.93;;
77168;SDS011;66281;45.114;20.730;2023-07-16T21:04:29;22.37;;;13.03;;
77168;SDS011;66281;45.114;20.730;2023-07-16T21:14:30;19.57;;;13.40;;
77168;SDS011;66281;45.114;20.730;2023-07-16T21:24:30;21.03;;;13.57;;
77168;SDS011;66281;45.114;20.730;2023-07-16T21:34:31;20.58;;;12.38;;
77168;SDS011;66281;45.114;20.730;2023-07-16T21:44:31;20.98;;;12.55;;
77168;SDS011;66281;45.114;20.730;2023-07-16T21:54:32;27.50;;;13.87;;
77168;SDS011;66281;45.114;20.730;2023-07-16T22:04:35;20.02;;;13.82;;
77168;SDS011;66281;45.114;20.730;2023-07-16T22:14:35;17.30;;;12.50;;
77168;SDS011;66281;45.114;20.730;2023-07-16T22:24:36;221.77;;;25.40;;
77168;SDS011;66281;45.114;20.730;2023-07-16T22:34:36;22.77;;;14.30;;
77168;SDS011;66281;45.114;20.730;2023-07-16T22:44:37;19.63;;;14.80;;
77168;SDS011;66281;45.114;20.730;2023-07-16T22:54:38;23.53;;;15.47;;
77168;SDS011;66281;45.114;20.730;2023-07-16T23:04:38;18.58;;;14.70;;
77168;SDS011;66281;45.114;20.730;2023-07-16T23:14:39;19.33;;;15.68;;
77168;SDS011;66281;45.114;20.730;2023-07-16T23:24:39;23.70;;;16.58;;
77168;SDS011;66281;45.114;20.730;2023-07-16T23:34:40;20.38;;;17.75;;
77168;SDS011;66281;45.114;20.730;2023-07-16T23:44:40;19.50;;;17.47;;
77168;SDS011;66281;45.114;20.730;2023-07-16T23:54:41;22.45;;;18.70;;
